Pagrindinis puslapis
METAR-TAF:

METAR-TAF

Oro uostai :

Penticton, Britų Kolumbija, Kanada

platuma: 49-28N, ilguma: 119-36W, Aukštis: 344 m

Dabartinis oras

Ataskaita buvo paskelbta 51 minutes, ne 12:00 UTC
Vėjas 3 kt iš Šiaurės/Šiaurės Vakarų
Temperatūra -6°C
Drėgmė 79%
Slėgis 1032 hPa
Matomumas: 24.1 km
Giedras dangus

METAR: CYYF 191200Z 34003KT 15SM SKC M06/M09 A3047 RMK SLP336

Laikas: 04:51 (12:51 UTC)

Prognozė

Ataskaita buvo paskelbta 13 minutes, ne 12:38 UTC
Prognozė galioja nuo 19 metu 13 UTC su 20 metu 01 UTC
Vėjas 3 kt nuo kintamojo kryptimis
Matomumas: 10 km
Giedras dangus
Tapsmas
nuo 19 metu 18 UTC su 19 metu 20 UTC
Vėjas 10 kt iš Pietų

TAF: CYYF 191238Z 1913/2001 VRB03KT P6SM SKC BECMG 1918/1920 18010KT RMK NXT FCST BY 191900Z

Orai ataskaitas ir orų prognozės (METAR, TAF).

turimą stotys yra geltonos ir raudonos taškus žemėlapyje.

Perkelti pele per norėdami pamatyti stoties vardą.

Tada spustelėkite, norėdami matyti oro stebėjimo ir prognozės.

Norėdami pakeisti žemėlapį: spustelėkite ant žalios mygtukų su juodo kryžiaus žemyn,; žalią mygtuką su brūkšneliu, jei norite nutolinti; arba žalių rodyklių gretimoms žemėlapius.


METAR-TAF: